createdAt,value
2019-05-03T00:02:58.074Z,5.77
2019-05-03T00:05:41.786Z,5.52
2019-05-03T00:08:30.097Z,5.56
2019-05-03T00:10:59.235Z,5.75
2019-05-03T00:17:11.737Z,5.80
2019-05-03T00:23:09.835Z,5.54
2019-05-03T00:25:38.962Z,5.20
2019-05-03T00:28:08.090Z,5.32
2019-05-03T00:30:37.323Z,5.50
2019-05-03T00:33:06.503Z,5.22
2019-05-03T00:36:02.542Z,5.52
2019-05-03T00:38:32.528Z,5.47
2019-05-03T00:41:22.540Z,5.12
2019-05-03T00:43:51.857Z,5.02
2019-05-03T00:46:22.038Z,4.69
2019-05-03T00:48:52.478Z,4.66
2019-05-03T00:51:42.310Z,5.14
2019-05-03T00:54:12.754Z,5.01
2019-05-03T00:56:44.355Z,5.13
2019-05-03T00:59:12.843Z,5.27
2019-05-03T01:01:42.518Z,5.19
2019-05-03T01:04:11.903Z,4.85
2019-05-03T01:06:42.346Z,4.97
2019-05-03T01:09:33.696Z,4.94
2019-05-03T01:12:02.674Z,4.82
2019-05-03T01:14:32.082Z,5.14
2019-05-03T01:17:02.623Z,5.03
2019-05-03T01:19:33.603Z,4.81
2019-05-03T01:22:02.529Z,4.76
2019-05-03T01:24:32.273Z,4.59
2019-05-03T01:27:01.957Z,4.73
2019-05-03T01:29:32.229Z,4.75
2019-05-03T01:32:02.321Z,4.62
2019-05-03T01:34:49.146Z,4.69
2019-05-03T01:37:18.346Z,4.57
2019-05-03T01:39:47.263Z,4.89
2019-05-03T01:42:16.265Z,4.90
2019-05-03T01:44:45.589Z,4.79
2019-05-03T01:47:21.888Z,4.64
2019-05-03T01:49:57.794Z,4.47
2019-05-03T01:52:45.753Z,4.73
2019-05-03T01:55:16.003Z,4.63
2019-05-03T01:57:44.978Z,4.74
2019-05-03T02:00:18.069Z,4.60
2019-05-03T02:03:05.915Z,4.88
2019-05-03T02:05:56.226Z,4.48
2019-05-03T02:08:25.224Z,4.72
2019-05-03T02:10:56.128Z,4.83
2019-05-03T02:13:25.015Z,4.73
2019-05-03T02:15:54.250Z,4.76
2019-05-03T02:18:23.190Z,4.31
2019-05-03T02:20:52.571Z,4.60
2019-05-03T02:23:22.464Z,4.18
2019-05-03T02:25:56.754Z,4.28
2019-05-03T02:28:22.190Z,4.35
2019-05-03T02:30:53.256Z,4.16
2019-05-03T02:33:33.690Z,4.48
2019-05-03T02:36:03.768Z,4.09
2019-05-03T02:38:34.077Z,4.02
2019-05-03T02:41:03.234Z,4.30
2019-05-03T02:43:45.456Z,4.33
2019-05-03T02:46:25.141Z,4.32
2019-05-03T02:49:15.978Z,4.12
2019-05-03T02:51:46.055Z,4.62
2019-05-03T02:54:15.820Z,4.18
2019-05-03T02:56:46.137Z,3.84
2019-05-03T02:59:16.028Z,3.60
2019-05-03T03:01:46.588Z,4.06
2019-05-03T03:04:16.039Z,4.03
2019-05-03T03:06:47.295Z,4.09
2019-05-03T03:09:31.244Z,4.01
2019-05-03T03:12:02.011Z,3.91
2019-05-03T03:14:33.097Z,3.71
2019-05-03T03:17:06.678Z,3.78
2019-05-03T03:19:38.313Z,3.62
2019-05-03T03:22:10.880Z,3.84
2019-05-03T03:24:45.559Z,3.61
2019-05-03T03:30:29.211Z,3.84
2019-05-03T03:32:58.399Z,4.01
2019-05-03T03:35:30.333Z,4.04
2019-05-03T03:37:59.765Z,4.03
2019-05-03T03:40:48.075Z,3.84
2019-05-03T03:43:19.707Z,3.75
2019-05-03T03:45:50.335Z,3.60
2019-05-03T03:48:20.755Z,3.60
2019-05-03T03:50:51.347Z,4.05
2019-05-03T03:53:22.897Z,4.10
2019-05-03T03:55:56.382Z,4.02
2019-05-03T04:03:49.579Z,3.73
2019-05-03T04:06:18.740Z,3.58
2019-05-03T04:08:56.111Z,3.77
2019-05-03T04:11:25.910Z,4.04
2019-05-03T04:13:55.896Z,3.87
2019-05-03T04:16:45.304Z,4.10
2019-05-03T04:19:24.927Z,3.91
2019-05-03T04:21:56.019Z,3.85
2019-05-03T04:24:25.925Z,4.05
2019-05-03T04:27:15.658Z,3.93
2019-05-03T04:29:50.918Z,3.85
2019-05-03T04:32:28.141Z,3.97
2019-05-03T04:34:56.028Z,4.08
2019-05-03T04:37:26.575Z,4.34
2019-05-03T04:39:56.269Z,3.82
2019-05-03T04:42:25.905Z,3.69
2019-05-03T04:44:56.233Z,4.01
2019-05-03T04:50:54.984Z,4.29
2019-05-03T04:53:25.949Z,4.56
2019-05-03T04:57:01.592Z,4.64
2019-05-03T05:00:25.348Z,4.90
2019-05-03T05:02:47.197Z,4.91
2019-05-03T05:05:16.426Z,4.94
2019-05-03T05:07:45.980Z,5.09
2019-05-03T05:31:26.741Z,10.40
2019-05-03T05:40:05.210Z,11.17
2019-05-03T05:53:46.160Z,12.31
2019-05-03T05:56:25.091Z,12.25
2019-05-03T06:04:34.922Z,13.08
2019-05-03T06:07:25.978Z,13.34
2019-05-03T06:10:02.078Z,13.60
2019-05-03T06:12:54.446Z,12.94
2019-05-03T06:18:11.007Z,10.91
2019-05-03T06:23:49.939Z,10.25
2019-05-03T06:26:36.361Z,8.61
2019-05-03T06:29:21.332Z,10.76
2019-05-03T06:46:45.515Z,14.60
2019-05-03T06:49:16.159Z,16.33
2019-05-03T06:51:55.210Z,14.62
2019-05-03T07:05:10.749Z,14.83
2019-05-03T07:08:02.654Z,14.99
2019-05-03T07:10:44.910Z,14.50
2019-05-03T07:13:15.187Z,13.97
2019-05-03T07:15:46.222Z,11.09
2019-05-03T07:18:15.822Z,11.84
2019-05-03T07:40:35.319Z,11.67
2019-05-03T07:43:08.578Z,11.19
2019-05-03T07:56:15.568Z,10.42
2019-05-03T07:58:59.883Z,10.75
2019-05-03T08:01:30.282Z,11.19
2019-05-03T08:03:59.764Z,11.19
2019-05-03T08:06:44.678Z,11.48
2019-05-03T08:09:15.306Z,10.99
2019-05-03T08:11:44.586Z,11.57
2019-05-03T08:14:17.695Z,11.29
2019-05-03T08:16:45.705Z,10.29
2019-05-03T08:19:16.590Z,10.29
2019-05-03T08:22:15.715Z,11.83
2019-05-03T08:24:48.245Z,11.83
2019-05-03T08:27:25.124Z,11.91
2019-05-03T08:29:55.770Z,11.11
2019-05-03T08:35:47.267Z,11.59
2019-05-03T08:38:19.901Z,11.28
2019-05-03T08:40:49.391Z,10.84
2019-05-03T08:43:18.574Z,10.50
2019-05-03T08:45:52.304Z,9.83
2019-05-03T08:48:21.780Z,9.79
2019-05-03T08:51:14.851Z,9.22
2019-05-03T08:56:40.297Z,9.35
2019-05-03T08:59:31.543Z,9.36
2019-05-03T09:01:56.508Z,9.30
2019-05-03T09:04:36.246Z,9.87
2019-05-03T09:06:56.211Z,9.87
2019-05-03T09:09:42.700Z,9.95
2019-05-03T09:12:11.736Z,10.43
2019-05-03T09:14:45.470Z,10.18
2019-05-03T09:17:36.502Z,10.55
2019-05-03T09:20:06.016Z,10.51
2019-05-03T09:22:35.097Z,10.03
2019-05-03T09:25:04.948Z,9.43
2019-05-03T09:27:34.439Z,9.32
2019-05-03T09:32:55.689Z,9.78
2019-05-03T09:35:32.591Z,9.87
2019-05-03T09:37:55.685Z,9.79
2019-05-03T09:40:24.759Z,10.25
2019-05-03T09:42:55.103Z,9.74
2019-05-03T09:45:24.636Z,9.78
2019-05-03T09:47:55.156Z,10.29
2019-05-03T09:50:24.739Z,11.13
2019-05-03T09:52:55.411Z,10.73
2019-05-03T09:55:44.817Z,10.43
2019-05-03T09:58:15.280Z,11.05
2019-05-03T10:00:44.880Z,10.74
2019-05-03T10:03:13.824Z,10.27
2019-05-03T10:05:42.852Z,10.45
2019-05-03T10:08:11.802Z,10.33
2019-05-03T10:10:58.232Z,10.51
2019-05-03T10:13:41.780Z,10.08
2019-05-03T10:16:10.727Z,9.27
2019-05-03T10:18:39.770Z,8.80
2019-05-03T10:21:09.034Z,8.86
2019-05-03T10:23:39.400Z,8.89
2019-05-03T10:26:08.688Z,9.27
2019-05-03T10:28:37.603Z,9.78
2019-05-03T10:31:07.834Z,9.89
2019-05-03T10:36:27.809Z,9.63
2019-05-03T10:38:56.827Z,9.45
2019-05-03T10:41:26.002Z,9.61
2019-05-03T10:43:55.662Z,10.33
2019-05-03T10:46:25.142Z,10.84
2019-05-03T10:48:55.780Z,10.88
2019-05-03T10:51:27.317Z,11.04
2019-05-03T10:53:58.850Z,11.36
2019-05-03T10:56:51.494Z,11.06
2019-05-03T10:59:21.551Z,11.51
2019-05-03T11:02:09.085Z,11.15
2019-05-03T11:04:38.038Z,10.95
2019-05-03T11:07:07.076Z,10.87
2019-05-03T11:09:48.632Z,11.12
2019-05-03T11:12:06.835Z,11.31
2019-05-03T11:14:55.189Z,10.53
2019-05-03T11:17:25.642Z,10.31
2019-05-03T11:19:55.767Z,10.29
2019-05-03T11:22:25.211Z,10.31
2019-05-03T11:24:54.673Z,10.52
2019-05-03T11:27:32.732Z,10.63
2019-05-03T11:30:01.579Z,10.21
2019-05-03T11:32:49.509Z,10.51
2019-05-03T11:35:37.508Z,10.34
2019-05-03T11:38:16.775Z,9.72
2019-05-03T11:40:45.706Z,9.48
2019-05-03T11:43:15.277Z,9.77
2019-05-03T11:45:56.703Z,9.58
2019-05-03T11:48:25.975Z,9.78
2019-05-03T11:50:54.902Z,9.80
2019-05-03T11:53:25.199Z,10.78
2019-05-03T11:56:02.241Z,10.42
2019-05-03T11:58:32.357Z,10.01
2019-05-03T12:01:29.746Z,10.18
2019-05-03T12:04:05.059Z,9.89
2019-05-03T12:06:36.621Z,9.76
2019-05-03T12:09:06.647Z,9.54
2019-05-03T12:11:37.481Z,9.42
2019-05-03T12:14:12.650Z,9.43
2019-05-03T12:17:16.581Z,10.25
2019-05-03T12:19:32.374Z,11.03
2019-05-03T12:22:02.474Z,10.45
2019-05-03T12:24:37.293Z,10.92
2019-05-03T12:35:07.446Z,10.92
2019-05-03T12:37:36.728Z,9.75
2019-05-03T12:40:05.791Z,9.75
2019-05-03T12:42:55.221Z,9.53
2019-05-03T12:45:24.887Z,9.44
2019-05-03T12:47:55.941Z,9.68
2019-05-03T12:50:40.215Z,9.96
2019-05-03T12:53:09.454Z,9.66
2019-05-03T12:55:38.728Z,9.47
2019-05-03T12:58:07.786Z,9.61
2019-05-03T13:00:48.832Z,10.05
2019-05-03T13:06:14.905Z,10.73
2019-05-03T13:08:45.560Z,10.69
2019-05-03T13:11:15.226Z,11.13
2019-05-03T13:14:04.866Z,11.58
2019-05-03T13:16:35.346Z,11.32
2019-05-03T13:19:07.335Z,11.36
2019-05-03T13:21:51.492Z,11.17
2019-05-03T13:24:35.847Z,10.76
2019-05-03T13:27:05.674Z,10.13
2019-05-03T13:29:34.977Z,10.05
2019-05-03T13:32:05.582Z,10.06
2019-05-03T13:34:35.888Z,10.42
2019-05-03T13:37:05.658Z,10.78
2019-05-03T13:39:55.420Z,11.12
2019-05-03T13:42:56.044Z,10.86
2019-05-03T13:45:18.265Z,11.20
2019-05-03T13:47:47.096Z,10.85
2019-05-03T13:50:39.273Z,10.30
2019-05-03T13:52:59.517Z,9.90
2019-05-03T13:55:31.706Z,9.56
2019-05-03T13:58:05.227Z,9.25
2019-05-03T14:00:35.692Z,9.32
2019-05-03T14:03:06.188Z,9.15
2019-05-03T14:05:37.505Z,9.27
2019-05-03T14:08:10.102Z,9.26
2019-05-03T14:11:04.830Z,9.40
2019-05-03T14:13:25.635Z,9.44
2019-05-03T14:15:55.202Z,9.51
2019-05-03T14:18:25.578Z,9.81
2019-05-03T14:21:05.019Z,9.70
2019-05-03T14:24:10.975Z,9.88
2019-05-03T14:26:41.246Z,10.20
2019-05-03T14:29:10.636Z,11.05
2019-05-03T14:31:39.757Z,11.30
2019-05-03T14:34:10.174Z,10.82
2019-05-03T14:36:39.143Z,10.59
2019-05-03T14:39:10.443Z,10.25
2019-05-03T14:42:11.200Z,10.47
2019-05-03T14:44:40.162Z,10.88
2019-05-03T14:47:09.207Z,11.58
2019-05-03T14:49:38.349Z,11.43
2019-05-03T14:52:07.406Z,10.87
2019-05-03T14:54:38.150Z,11.52
2019-05-03T14:57:48.674Z,11.37
2019-05-03T15:00:39.095Z,11.27
2019-05-03T15:03:11.815Z,10.99
2019-05-03T15:06:16.365Z,11.20
2019-05-03T15:08:45.853Z,11.34
2019-05-03T15:11:15.737Z,11.70
2019-05-03T15:13:45.542Z,11.76
2019-05-03T15:16:14.960Z,11.54
2019-05-03T15:18:45.411Z,10.69
2019-05-03T15:21:14.738Z,10.41
2019-05-03T15:23:45.330Z,10.58
2019-05-03T15:26:32.947Z,10.58
2019-05-03T15:29:02.074Z,10.36
2019-05-03T15:31:35.208Z,10.35
2019-05-03T15:34:04.624Z,11.20
2019-05-03T15:36:34.222Z,11.16
2019-05-03T15:39:04.658Z,11.00
2019-05-03T15:41:37.648Z,12.90
2019-05-03T15:44:28.863Z,10.82
2019-05-03T15:47:14.662Z,11.04
2019-05-03T15:49:55.604Z,13.86
2019-05-03T15:52:24.865Z,10.85
2019-05-03T16:15:55.257Z,9.91
2019-05-03T16:18:25.061Z,9.91
2019-05-03T16:20:54.755Z,9.71
2019-05-03T16:23:25.027Z,9.77
2019-05-03T16:25:54.661Z,9.59
2019-05-03T16:28:46.150Z,9.61
2019-05-03T16:31:17.839Z,9.35
2019-05-03T16:33:47.206Z,9.51
2019-05-03T16:36:17.431Z,9.68
2019-05-03T16:38:46.840Z,9.55
2019-05-03T16:41:17.926Z,9.78
2019-05-03T16:43:47.359Z,9.77
2019-05-03T16:46:17.147Z,9.88
2019-05-03T16:48:47.503Z,9.49
2019-05-03T16:51:34.895Z,9.37
2019-05-03T16:54:04.225Z,9.31
2019-05-03T16:56:35.278Z,9.42
2019-05-03T16:59:05.847Z,9.32
2019-05-03T17:01:35.257Z,9.13
2019-05-03T17:04:22.080Z,9.21
2019-05-03T17:07:42.201Z,8.83
2019-05-03T17:10:19.987Z,8.79
2019-05-03T17:13:09.116Z,8.79
2019-05-03T17:15:38.152Z,8.85
2019-05-03T17:18:07.580Z,8.86
2019-05-03T17:20:36.583Z,8.74
2019-05-03T17:23:07.005Z,8.63
2019-05-03T17:25:36.313Z,8.24
2019-05-03T17:28:05.436Z,8.00
2019-05-03T17:30:37.314Z,7.83
2019-05-03T17:33:30.815Z,7.49
2019-05-03T17:36:00.347Z,7.43
2019-05-03T17:38:29.523Z,7.46
2019-05-03T17:41:20.134Z,7.33
2019-05-03T17:43:54.567Z,7.51
2019-05-03T17:46:45.276Z,7.49
2019-05-03T17:52:39.654Z,7.59
2019-05-03T17:55:26.477Z,7.46
2019-05-03T17:57:59.681Z,7.49
2019-05-03T18:03:45.265Z,7.34
2019-05-03T18:06:25.405Z,7.48
2019-05-03T18:11:59.653Z,7.49
2019-05-03T18:14:28.955Z,7.06
2019-05-03T18:16:59.658Z,7.14
2019-05-03T18:19:28.920Z,7.14
2019-05-03T18:21:58.093Z,6.94
2019-05-03T18:24:27.553Z,7.10
2019-05-03T18:26:56.790Z,7.10
2019-05-03T18:29:25.845Z,6.96
2019-05-03T18:32:14.752Z,6.94
2019-05-03T18:34:45.417Z,6.96
2019-05-03T18:37:15.727Z,6.79
2019-05-03T18:39:46.068Z,6.90
2019-05-03T18:42:24.496Z,6.80
2019-05-03T18:44:56.106Z,7.02
2019-05-03T18:47:26.169Z,6.68
2019-05-03T18:50:13.672Z,6.36
2019-05-03T18:52:42.676Z,6.31
2019-05-03T18:55:12.839Z,6.20
2019-05-03T18:57:41.796Z,5.88
2019-05-03T19:00:11.396Z,5.86
2019-05-03T19:02:40.493Z,5.66
2019-05-03T19:05:10.027Z,5.91
2019-05-03T19:08:05.987Z,5.80
2019-05-03T19:10:45.116Z,5.73
2019-05-03T19:13:29.654Z,5.52
2019-05-03T19:16:00.714Z,5.58
2019-05-03T19:18:31.603Z,5.59
2019-05-03T19:21:00.594Z,5.37
2019-05-03T19:23:44.677Z,5.27
2019-05-03T19:26:14.462Z,5.45
2019-05-03T19:28:44.490Z,5.32
2019-05-03T19:31:13.664Z,5.22
2019-05-03T19:33:42.668Z,5.31
2019-05-03T19:36:11.630Z,5.41
2019-05-03T19:38:40.740Z,5.46
2019-05-03T19:41:10.986Z,5.67
2019-05-03T19:43:39.869Z,5.27
2019-05-03T19:46:08.982Z,5.33
2019-05-03T19:48:55.353Z,5.40
2019-05-03T19:51:24.274Z,5.46
2019-05-03T19:53:55.269Z,5.67
2019-05-03T19:56:25.673Z,5.77
2019-05-03T19:59:04.649Z,5.81
2019-05-03T20:02:01.280Z,5.78
2019-05-03T20:04:58.533Z,5.38
2019-05-03T20:07:45.191Z,5.29
2019-05-03T20:10:35.148Z,5.14
2019-05-03T20:13:04.717Z,5.44
2019-05-03T20:15:33.921Z,5.25
2019-05-03T20:18:04.788Z,5.26
2019-05-03T20:20:35.592Z,5.37
2019-05-03T20:23:05.286Z,5.37
2019-05-03T20:25:35.120Z,5.26
2019-05-03T20:28:04.991Z,5.46
2019-05-03T20:30:34.810Z,5.35
2019-05-03T20:41:18.414Z,5.24
2019-05-03T20:44:05.532Z,5.11
2019-05-03T20:46:59.419Z,5.14
2019-05-03T20:49:30.633Z,5.08
2019-05-03T20:52:00.842Z,5.00
2019-05-03T20:54:30.037Z,5.06
2019-05-03T20:57:14.509Z,4.95
2019-05-03T20:59:48.688Z,5.02
2019-05-03T21:02:15.294Z,4.75
2019-05-03T21:04:44.254Z,4.83
2019-05-03T21:07:15.249Z,5.22
2019-05-03T21:09:52.158Z,4.92
2019-05-03T21:12:21.548Z,5.14
2019-05-03T21:14:50.570Z,5.23
2019-05-03T21:17:41.381Z,5.40
2019-05-03T21:20:32.396Z,5.24
2019-05-03T21:23:01.652Z,4.96
2019-05-03T21:28:28.670Z,4.97
2019-05-03T21:30:57.966Z,4.96
2019-05-03T21:33:27.188Z,4.87
2019-05-03T21:35:56.475Z,4.75
2019-05-03T21:38:25.859Z,4.82
2019-05-03T21:40:54.923Z,4.67
2019-05-03T21:43:25.683Z,4.57
2019-05-03T21:46:04.989Z,4.31
2019-05-03T21:49:08.392Z,4.60
2019-05-03T21:51:37.598Z,4.44
2019-05-03T21:54:06.963Z,4.21
2019-05-03T21:56:36.223Z,4.02
2019-05-03T21:59:05.681Z,4.19
2019-05-03T22:01:38.256Z,3.89
2019-05-03T22:04:25.309Z,4.00
2019-05-03T22:06:54.907Z,4.07
2019-05-03T22:09:23.844Z,4.21
2019-05-03T22:11:54.733Z,3.88
2019-05-03T22:14:31.364Z,4.13
2019-05-03T22:17:34.896Z,3.93
2019-05-03T22:20:15.898Z,4.07
2019-05-03T22:23:11.147Z,4.31
2019-05-03T22:26:05.026Z,4.18
2019-05-03T22:28:35.187Z,3.89
2019-05-03T22:31:08.270Z,3.89
2019-05-03T22:33:37.549Z,4.02
2019-05-03T22:36:09.039Z,4.12
2019-05-03T22:38:44.878Z,4.08
2019-05-03T22:41:12.323Z,4.14
2019-05-03T22:43:56.548Z,4.09
2019-05-03T22:46:25.482Z,4.05
2019-05-03T22:48:55.197Z,4.15
2019-05-03T22:51:24.518Z,4.39
2019-05-03T22:53:54.972Z,3.86
2019-05-03T22:56:24.856Z,3.59
2019-05-03T22:58:54.791Z,3.93
2019-05-03T23:01:25.519Z,3.86
2019-05-03T23:03:55.082Z,3.89
2019-05-03T23:06:34.809Z,3.94
2019-05-03T23:09:06.085Z,4.09
2019-05-03T23:11:35.396Z,3.85
2019-05-03T23:14:05.137Z,4.02
2019-05-03T23:16:35.628Z,4.18
2019-05-03T23:19:05.681Z,3.89
2019-05-03T23:24:46.356Z,4.20
2019-05-03T23:27:15.359Z,4.26
2019-05-03T23:29:45.414Z,4.20
2019-05-03T23:32:15.181Z,4.15
2019-05-03T23:34:46.230Z,4.05
2019-05-03T23:37:14.796Z,4.24
2019-05-03T23:39:44.606Z,4.10
2019-05-03T23:42:15.462Z,4.23
2019-05-03T23:44:45.671Z,4.13
2019-05-03T23:47:45.089Z,4.16
2019-05-03T23:50:17.167Z,3.97
2019-05-03T23:52:46.146Z,3.99
2019-05-03T23:55:25.262Z,3.78
2019-05-03T23:57:55.429Z,4.06
